• Join FlightAware (Why Join?)
  • Login
  • US Flag 
03:32AM EDT


 

Airport Tracker/Info


-or-


 

Live Flight TrackerFlight Track Log ✈ DAL268 ✈ 23-Oct-2013 ✈ KSFO - KJFK

Flight Track Log - Related Links

Times and Time Zones

All times are in EDT time to prevent confusion due to time zone crossing. See the DAL268 flight status page for this flight to view local times or setup timezone preferences in your user account.

Time Position Orientation Groundspeed Altitude Reporting Facility
EDT Latitude Longitude Course Direction KTS MPH feet Rate Location/Type
02:55PM 37.6312 -122.3640 31° Northeast 163 188 600  Level FlightAware ADS-B
02:56PM 37.6394 -122.3570 34° Northeast 174 200 1,100 2,100 Climbing FlightAware ADS-B
02:56PM 37.6417 -122.3540 46° Northeast 180 207 1,200 2,160 Climbing FlightAware ADS-B
02:56PM 37.6457 -122.3480 50° Northeast 184 212 1,500 2,040 Climbing FlightAware ADS-B
02:56PM 37.6564 -122.3330 48° Northeast 190 219 2,100 1,800 Climbing FlightAware ADS-B
02:56PM 37.6610 -122.3270 46° Northeast 205 236 2,300 1,800 Climbing FlightAware ADS-B
02:56PM 37.6697 -122.3150 48° Northeast 220 253 2,700 1,620 Climbing FlightAware ADS-B
02:57PM 37.6816 -122.2990 47° Northeast 241 277 3,100 1,380 Climbing FlightAware ADS-B
02:57PM 37.6965 -122.2790 47° Northeast 269 310 3,500 2,040 Climbing FlightAware ADS-B
02:57PM 37.7109 -122.2600 46° Northeast 273 314 4,300 3,360 Climbing FlightAware ADS-B
02:58PM 37.7298 -122.2350 46° Northeast 267 307 5,700 3,420 Climbing FlightAware ADS-B
02:58PM 37.7449 -122.2140 48° Northeast 271 312 6,600 3,000 Climbing FlightAware ADS-B
02:58PM 37.7487 -122.2080 51° Northeast 272 313 6,800 2,760 Climbing FlightAware ADS-B
02:58PM 37.7550 -122.1940 60° Northeast 275 316 7,300 2,520 Climbing FlightAware ADS-B
02:58PM 37.7583 -122.1820 71° East 278 320 7,600 2,520 Climbing FlightAware ADS-B
02:59PM 37.7637 -122.1610 72° East 287 330 8,200 2,640 Climbing FlightAware ADS-B
02:59PM 37.7660 -122.1520 72° East 289 333 8,400 2,280 Climbing FlightAware ADS-B
02:59PM 37.7734 -122.1280 69° East 293 337 9,000 2,700 Climbing FlightAware ADS-B
02:59PM 37.7814 -122.1040 67° East 294 338 9,800 2,520 Climbing FlightAware ADS-B
03:00PM 37.7967 -122.0520 70° East 314 361 11,000 1,500 Climbing FlightAware ADS-B
03:00PM 37.8115 -121.9920 73° East 356 410 11,400 1,440 Climbing FlightAware ADS-B
03:01PM 37.8414 -121.8840 71° East 377 434 13,000 1,800 Climbing FlightAware ADS-B
03:02PM 37.8587 -121.8220 71° East 405 466 13,900 1,980 Climbing FlightAware ADS-B
03:02PM 37.8769 -121.7510 72° East 413 475 15,000 2,220 Climbing FlightAware ADS-B
03:03PM 37.8953 -121.6810 72° East 419 482 16,200 2,220 Climbing FlightAware ADS-B
03:03PM 37.9143 -121.6100 71° East 423 487 17,300 2,040 Climbing FlightAware ADS-B
03:04PM 37.9376 -121.5230 71° East 430 495 18,500 1,980 Climbing FlightAware ADS-B
03:04PM 37.9580 -121.4460 71° East 436 502 19,600 1,920 Climbing FlightAware ADS-B
03:05PM 38.0080 -121.2580 71° East 446 513 22,000 1,800 Climbing FlightAware
03:06PM 38.0290 -121.1790 71° East 449 517 22,900 1,680 Climbing FlightAware
03:07PM 38.0510 -121.0930 72° East 455 524 23,900 1,560 Climbing FlightAware
03:07PM 38.0770 -120.9960 71° East 459 528 24,800 1,380 Climbing FlightAware
03:08PM 38.1190 -120.8200 73° East 466 536 26,400 1,380 Climbing FlightAware
03:10PM 38.1630 -120.6360 73° East 468 539 28,100 1,500 Climbing FlightAware
03:10PM 38.1840 -120.5470 73° East 464 534 29,000 1,560 Climbing FlightAware
03:11PM 38.2030 -120.4680 73° East 461 531 29,800 1,380 Climbing FlightAware
03:11PM 38.2270 -120.3690 73° East 463 533 30,600 1,260 Climbing FlightAware
03:12PM 38.2622 -120.2185 73° East 462 532 31,900 1,260 Climbing FlightAware ADS-B (KAHC)
03:13PM 38.2769 -120.1556 73° East 462 532 32,600 1,140 Climbing FlightAware ADS-B (KAHC)
03:13PM 38.3029 -120.0443 73° East 461 531 33,200 1,080 Climbing FlightAware ADS-B (KAHC)
03:15PM 38.3612 -119.7931 73° East 456 525 35,000 780 Climbing FlightAware ADS-B (KAHC)
03:16PM 38.3846 -119.6916 74° East 452 520 35,000  Level FlightAware ADS-B (KAHC)
03:16PM 38.4033 -119.6096 74° East 452 520 35,000  Level FlightAware ADS-B (KAHC)
03:17PM 38.4274 -119.5040 74° East 453 521 35,000  Level FlightAware ADS-B (KAHC)
03:17PM 38.4500 -119.4045 74° East 455 524 35,000  Level FlightAware ADS-B (KAHC)
03:18PM 38.4680 -119.3250 74° East 456 525 35,000  Level FlightAware ADS-B (KAHC)
03:19PM 38.4913 -119.2219 74° East 457 526 35,000  Level FlightAware ADS-B (KAHC)
03:19PM 38.5051 -119.1439 77° East 458 527 35,000  Level FlightAware ADS-B (KAHC)
03:20PM 38.5147 -119.0609 82° East 459 528 35,000  Level FlightAware ADS-B (KAHC)
03:20PM 38.5254 -118.9535 83° East 461 531 35,000  Level FlightAware ADS-B (KAHC)
03:22PM 38.5450 -118.7580 83° East 461 531 35,000  Level FlightAware
03:22PM 38.5510 -118.6960 83° East 462 532 35,000  Level FlightAware
03:23PM 38.5720 -118.4760 83° East 463 533 35,000  Level FlightAware
03:24PM 38.5820 -118.3750 83° East 462 532 35,000  Level FlightAware
03:24PM 38.5890 -118.2930 84° East 462 532 35,000  Level FlightAware
03:25PM 38.5970 -118.2100 83° East 462 532 35,000  Level FlightAware
03:25PM 38.6050 -118.1220 83° East 461 531 35,000  Level FlightAware
03:26PM 38.6090 -118.0800 83° East 461 531 35,000  Level FlightAware
03:27PM 38.6290 -117.8770 83° East 461 531 35,000  Level FlightAware
03:28PM 38.6340 -117.8220 83° East 461 531 35,000  Level FlightAware
03:28PM 38.6420 -117.7420 83° East 461 531 35,000  Level FlightAware
03:29PM 38.6500 -117.6590 83° East 461 531 35,000  Level FlightAware
03:29PM 38.6580 -117.5730 83° East 461 531 35,000  Level FlightAware
03:30PM 38.6680 -117.4670 83° East 461 531 35,000  Level FlightAware
03:31PM 38.6760 -117.3890 82° East 461 531 35,000  Level FlightAware
03:31PM 38.6840 -117.3060 83° East 461 531 35,000  Level FlightAware
03:32PM 38.6910 -117.2230 84° East 461 531 35,000  Level FlightAware
03:33PM 38.7000 -117.1380 82° East 461 531 35,000  Level FlightAware
03:33PM 38.7070 -117.0570 84° East 461 531 35,000  Level FlightAware
03:34PM 38.7150 -116.9740 83° East 461 531 35,000  Level FlightAware
03:35PM 38.7290 -116.8330 83° East 461 531 35,000  Level FlightAware
03:35PM 38.7370 -116.7500 83° East 461 531 35,000  Level FlightAware
03:36PM 38.7390 -116.7230 85° East 461 531 35,000  Level FlightAware
03:36PM 38.8136 -116.3803 85° East 470 541 35,000  Level Salt Lake Center
03:37PM 38.8367 -116.2153 80° East 470 541 35,000  Level Salt Lake Center
03:38PM 38.8650 -116.0167 80° East 471 542 35,000  Level Salt Lake Center
03:39PM 38.8883 -115.8528 80° East 468 539 35,000  Level Salt Lake Center
03:40PM 38.9108 -115.6869 80° East 469 540 35,000  Level Salt Lake Center
03:41PM 38.9331 -115.5217 80° East 470 541 35,000  Level Salt Lake Center
03:43PM 38.9556 -115.3586 80° East 472 543 35,000  Level Salt Lake Center
03:44PM 38.9781 -115.1933 80° East 472 543 35,000  Level Salt Lake Center
03:45PM 39.0039 -114.9956 80° East 469 540 35,000  Level Salt Lake Center
03:46PM 39.0269 -114.8292 80° East 471 542 35,000  Level Salt Lake Center
03:52PM 39.1557 -113.7886 80° East 475 547 35,000  Level FlightAware ADS-B (KPVU)
03:52PM 39.1660 -113.7090 80° East 473 544 35,000  Level FlightAware
03:53PM 39.1850 -113.5460 81° East 474 545 35,000  Level FlightAware
03:54PM 39.1950 -113.4560 82° East 475 547 35,000  Level FlightAware
03:55PM 39.2272 -113.2775 77° East 479 551 35,000 300 Level FlightAware ADS-B (KPVU)
03:56PM 39.2828 -113.1887 51° Northeast 482 555 35,600 780 Climbing FlightAware ADS-B (KPVU)
03:56PM 39.3273 -113.0876 60° Northeast 476 548 36,100 780 Climbing FlightAware ADS-B (KPVU)
03:57PM 39.3559 -112.9600 74° East 474 545 36,800 840 Climbing FlightAware ADS-B
03:57PM 39.3666 -112.9150 73° East 474 545 37,000 360 Climbing FlightAware ADS-B (KPVU)
03:58PM 39.3754 -112.8790 72° East 475 547 37,000  Level FlightAware ADS-B
03:58PM 39.3957 -112.7960 72° East 472 543 37,000  Level FlightAware ADS-B
03:59PM 39.4191 -112.7010 72° East 471 542 37,000  Level FlightAware ADS-B
03:59PM 39.4368 -112.6289 72° East 472 543 37,000  Level FlightAware ADS-B (KPVU)
03:59PM 39.4414 -112.6100 72° East 472 543 37,000  Level FlightAware ADS-B
04:00PM 39.4614 -112.5290 72° East 472 543 37,000  Level FlightAware ADS-B
04:00PM 39.4839 -112.4450 71° East 473 544 37,000  Level FlightAware ADS-B
04:01PM 39.5055 -112.3640 71° East 474 545 37,000  Level FlightAware ADS-B
04:01PM 39.5268 -112.2830 71° East 474 545 37,000  Level FlightAware ADS-B
04:02PM 39.5486 -112.1990 71° East 475 547 37,000  Level FlightAware ADS-B
04:02PM 39.5711 -112.1120 71° East 474 545 37,000  Level FlightAware ADS-B
04:03PM 39.5947 -112.0210 71° East 474 545 37,000  Level FlightAware ADS-B
04:03PM 39.6160 -111.9380 72° East 474 545 37,000  Level FlightAware ADS-B
04:04PM 39.6265 -111.8968 72° East 474 545 37,000  Level FlightAware ADS-B (KPVU)
04:04PM 39.6400 -111.8440 72° East 474 545 37,000  Level FlightAware ADS-B
04:04PM 39.6623 -111.7570 72° East 474 545 37,000  Level FlightAware ADS-B
04:04PM 39.6623 -111.7565 84° East 474 545 37,000  Level FlightAware ADS-B (KPVU)
04:05PM 39.6859 -111.6640 72° East 475 547 37,000  Level FlightAware ADS-B
04:06PM 39.7112 -111.5640 72° East 476 548 37,000  Level FlightAware ADS-B
04:06PM 39.7210 -111.5254 72° East 477 549 37,000  Level FlightAware ADS-B (KPVU)
04:06PM 39.7319 -111.4830 72° East 476 548 37,000  Level FlightAware ADS-B
04:07PM 39.7525 -111.4010 72° East 477 549 37,000  Level FlightAware ADS-B
04:07PM 39.7674 -111.3412 72° East 476 548 37,000  Level FlightAware ADS-B (KMTJ)
04:07PM 39.7729 -111.3190 72° East 476 548 37,000  Level FlightAware ADS-B
04:08PM 39.7889 -111.2551 72° East 477 549 37,000  Level FlightAware ADS-B (KMTJ)
04:08PM 39.7935 -111.2370 72° East 477 549 37,000  Level FlightAware ADS-B
04:08PM 39.8107 -111.1680 72° East 477 549 37,000  Level FlightAware ADS-B (KPVU)
04:08PM 39.8140 -111.1550 72° East 477 549 37,000  Level FlightAware ADS-B
04:09PM 39.8343 -111.0730 72° East 478 550 37,000  Level FlightAware ADS-B
04:09PM 39.8360 -111.0661 73° East 478 550 37,000  Level FlightAware ADS-B (KMTJ)
04:09PM 39.8557 -110.9860 72° East 478 550 37,000  Level FlightAware ADS-B
04:09PM 39.8561 -110.9847 67° East 478 550 37,000  Level FlightAware ADS-B (KMTJ)
04:10PM 39.8763 -110.9030 72° East 478 550 37,000  Level FlightAware ADS-B
04:10PM 39.8777 -110.8973 73° East 478 550 37,000  Level FlightAware ADS-B (KMTJ)
04:10PM 39.9008 -110.8035 72° East 479 551 37,000  Level FlightAware ADS-B (KMTJ)
04:11PM 39.9174 -110.7350 72° East 478 550 37,000  Level FlightAware ADS-B
04:11PM 39.9203 -110.7236 72° East 479 551 37,000  Level FlightAware ADS-B (KMTJ)
04:11PM 39.9420 -110.6347 72° East 478 550 37,000  Level FlightAware ADS-B (KMTJ)
04:12PM 39.9617 -110.5534 72° East 478 550 37,000  Level FlightAware ADS-B (KMTJ)
04:12PM 39.9819 -110.4700 72° East 478 550 37,000  Level FlightAware ADS-B (KMTJ)
04:13PM 40.0023 -110.3856 72° East 478 550 37,000  Level FlightAware ADS-B (KMTJ)
04:13PM 40.0226 -110.3011 73° East 478 550 37,000  Level FlightAware ADS-B (KMTJ)
04:14PM 40.0421 -110.2196 73° East 479 551 37,000  Level FlightAware ADS-B (KMTJ)
04:15PM 40.0715 -110.0968 73° East 478 550 37,000  Level FlightAware ADS-B (KMTJ)
04:15PM 40.0909 -110.0149 73° East 478 550 37,000  Level FlightAware ADS-B (KMTJ)
04:16PM 40.1134 -109.9197 73° East 478 550 37,000  Level FlightAware ADS-B (KMTJ)
04:16PM 40.1331 -109.8358 73° East 480 552 37,000  Level FlightAware ADS-B (KMTJ)
04:17PM 40.1534 -109.7495 73° East 480 552 37,000  Level FlightAware ADS-B (KMTJ)
04:17PM 40.1727 -109.6667 73° East 480 552 37,000  Level FlightAware ADS-B (KMTJ)
04:18PM 40.1949 -109.5718 73° East 480 552 37,000  Level FlightAware ADS-B (KMTJ)
04:18PM 40.2209 -109.4595 73° East 481 554 37,000  Level FlightAware ADS-B (KMTJ)
04:19PM 40.2393 -109.3799 73° East 480 552 37,000  Level FlightAware ADS-B (KMTJ)
04:19PM 40.2594 -109.2926 73° East 481 554 37,000  Level FlightAware ADS-B (KMTJ)
04:20PM 40.2792 -109.2060 73° East 482 555 37,000  Level FlightAware ADS-B (KMTJ)
04:20PM 40.2985 -109.1214 73° East 483 556 37,000  Level FlightAware ADS-B (KMTJ)
04:21PM 40.3200 -109.0271 73° East 484 557 37,000  Level FlightAware ADS-B (KMTJ)
04:22PM 40.3457 -108.9133 73° East 485 558 37,000  Level FlightAware ADS-B (KMTJ)
04:22PM 40.3647 -108.8291 73° East 486 559 37,000  Level FlightAware ADS-B (KMTJ)
04:23PM 40.3850 -108.7389 74° East 487 560 37,000  Level FlightAware ADS-B (KMTJ)
04:24PM 40.4172 -108.5944 74° East 485 558 37,000  Level FlightAware ADS-B (KMTJ)
04:24PM 40.4421 -108.4822 74° East 484 557 37,000  Level FlightAware ADS-B (KMTJ)
04:25PM 40.4615 -108.3947 74° East 483 556 37,000  Level FlightAware ADS-B (KMTJ)
04:25PM 40.4800 -108.3102 74° East 482 555 37,000  Level FlightAware ADS-B (KMTJ)
04:26PM 40.4988 -108.2247 74° East 481 554 37,000  Level FlightAware ADS-B (KMTJ)
04:26PM 40.5183 -108.1349 74° East 479 551 37,000  Level FlightAware ADS-B (KMTJ)
04:27PM 40.5372 -108.0486 74° East 477 549 37,000  Level FlightAware ADS-B (KMTJ)
04:27PM 40.5558 -107.9627 74° East 477 549 37,000  Level FlightAware ADS-B (KMTJ)
04:28PM 40.5787 -107.8565 74° East 477 549 37,000  Level FlightAware ADS-B (KMTJ)
04:29PM 40.5965 -107.7734 74° East 477 549 37,000  Level FlightAware ADS-B (KMTJ)
04:29PM 40.6131 -107.6960 74° East 477 549 37,000  Level FlightAware ADS-B (KMTJ)
04:30PM 40.6344 -107.5955 74° East 477 549 37,000  Level FlightAware ADS-B (KMTJ)
04:30PM 40.6527 -107.5090 74° East 474 545 37,000  Level FlightAware ADS-B (KMTJ)
04:31PM 40.6698 -107.4284 74° East 473 544 37,000  Level FlightAware ADS-B (KMTJ)
04:31PM 40.6932 -107.3171 74° East 473 544 37,000  Level FlightAware ADS-B (KMTJ)
04:32PM 40.7230 -107.1720 75° East 472 543 37,000  Level FlightAware
04:33PM 40.7633 -106.9803 74° East 476 548 37,000  Level FlightAware ADS-B (KANK)
04:34PM 40.8007 -106.7979 75° East 476 548 37,000  Level FlightAware ADS-B (KEIK)
04:35PM 40.8268 -106.6698 75° East 476 548 37,000  Level FlightAware ADS-B (KEIK)
04:36PM 40.8517 -106.5471 75° East 476 548 37,000  Level FlightAware ADS-B (KEIK)
04:37PM 40.8850 -106.3830 75° East 477 549 37,000  Level FlightAware
04:37PM 40.9060 -106.2770 75° East 478 550 37,000  Level FlightAware
04:38PM 40.9250 -106.1820 75° East 479 551 37,000  Level FlightAware
04:39PM 40.9567 -106.0204 75° East 481 554 37,000  Level FlightAware ADS-B (KEIK)
04:40PM 40.9987 -105.8058 75° East 482 555 37,000  Level FlightAware ADS-B (KEIK)
04:41PM 41.0131 -105.7315 76° East 483 556 37,000  Level FlightAware ADS-B (KEIK)
04:42PM 41.0485 -105.5485 76° East 484 557 37,000  Level FlightAware ADS-B (KEIK)
04:43PM 41.0740 -105.4130 76° East 484 557 37,000 300 Level FlightAware
04:43PM 41.0986 -105.2863 76° East 486 559 37,500 720 Climbing FlightAware ADS-B (KEIK)
04:45PM 41.1415 -105.0588 76° East 484 557 38,500 600 Climbing FlightAware ADS-B (KEIK)
04:46PM 41.1740 -104.8820 76° East 484 557 39,000 300 Climbing FlightAware
04:46PM 41.1909 -104.7932 76° East 482 555 39,000  Level FlightAware ADS-B (KEIK)
04:47PM 41.2203 -104.6332 76° East 483 556 39,000  Level FlightAware ADS-B (KEIK)
04:48PM 41.2416 -104.5165 76° East 485 558 39,000  Level FlightAware ADS-B (KEIK)
04:49PM 41.2690 -104.3650 76° East 487 560 39,000  Level FlightAware
04:49PM 41.2900 -104.2490 76° East 490 564 39,000  Level FlightAware
04:50PM 41.3100 -104.1350 77° East 492 566 39,000  Level FlightAware
04:50PM 41.3270 -104.0420 76° East 493 567 39,000  Level FlightAware
04:51PM 41.3490 -103.9190 77° East 496 571 39,000  Level FlightAware
04:52PM 41.3630 -103.8360 77° East 497 572 39,000  Level FlightAware
04:53PM 41.3940 -103.6620 77° East 499 574 39,000  Level FlightAware
04:53PM 41.4080 -103.5790 77° East 500 575 39,000  Level FlightAware
04:54PM 41.4270 -103.4690 77° East 501 577 39,000  Level FlightAware
04:55PM 41.4550 -103.3030 77° East 503 579 39,000  Level FlightAware
04:55PM 41.4730 -103.2010 77° East 503 579 39,000  Level FlightAware
04:56PM 41.4890 -103.1080 77° East 503 579 39,000  Level FlightAware
04:56PM 41.5100 -102.9820 77° East 504 580 39,000  Level FlightAware
04:57PM 41.5270 -102.8800 77° East 502 578 39,000  Level FlightAware
04:58PM 41.5530 -102.7230 77° East 502 578 39,000  Level FlightAware
04:58PM 41.5670 -102.6380 78° East 501 577 39,000  Level FlightAware
04:59PM 41.5830 -102.5460 77° East 501 577 39,000  Level FlightAware
04:59PM 41.5940 -102.4820 77° East 501 577 39,000  Level FlightAware
05:01PM 41.6260 -102.2970 77° East 501 577 39,000  Level FlightAware
05:01PM 41.6590 -102.0690 79° East 504 580 39,000  Level FlightAware
05:02PM 41.6760 -101.9600 78° East 504 580 39,000  Level FlightAware
05:02PM 41.6890 -101.8790 78° East 504 580 39,000  Level FlightAware
05:03PM 41.7120 -101.7280 78° East 504 580 39,000  Level FlightAware
05:04PM 41.7320 -101.6040 78° East 504 580 39,000  Level FlightAware
05:05PM 41.7530 -101.4740 78° East 504 580 39,000  Level FlightAware
05:06PM 41.7680 -101.3800 78° East 504 580 39,000  Level FlightAware
05:07PM 41.7930 -101.2190 78° East 504 580 39,000  Level FlightAware
05:07PM 41.8080 -101.1250 78° East 504 580 39,000  Level FlightAware
05:08PM 41.8230 -101.0320 78° East 504 580 39,000  Level FlightAware
05:09PM 41.8430 -100.9040 78° East 504 580 39,000  Level FlightAware
05:10PM 41.8680 -100.7480 78° East 504 580 39,000  Level FlightAware
05:10PM 41.8830 -100.6540 78° East 504 580 39,000  Level FlightAware
05:11PM 41.9030 -100.5270 78° East 504 580 39,000  Level FlightAware
05:12PM 41.9220 -100.4070 78° East 504 580 39,000 -2,100 Level FlightAware
05:13PM 41.9700 -99.9886 78° East 492 566 35,000 -600 Descending Minneapolis Center
05:19PM 42.1100 -98.9290 78° East 505 581 35,000  Level FlightAware
05:20PM 42.1340 -98.7430 80° East 508 585 35,000  Level FlightAware
05:21PM 42.1560 -98.5730 80° East 512 589 35,000  Level FlightAware
05:21PM 42.1670 -98.4840 81° East 514 592 35,000  Level FlightAware
05:22PM 42.1800 -98.3810 80° East 516 594 35,000  Level FlightAware
05:22PM 42.2010 -98.2090 81° East 519 597 35,000  Level FlightAware
05:23PM 42.2200 -98.0500 81° East 519 597 35,000  Level FlightAware
05:24PM 42.2450 -97.8480 80° East 521 600 35,000  Level FlightAware
05:25PM 42.2540 -97.7680 81° East 521 600 35,000  Level FlightAware
05:25PM 42.2670 -97.6630 80° East 521 600 35,000  Level FlightAware
05:26PM 42.2860 -97.4950 81° East 523 602 35,000  Level FlightAware
05:27PM 42.3020 -97.3610 81° East 524 603 35,000  Level FlightAware
05:27PM 42.3130 -97.2580 82° East 525 604 35,000  Level FlightAware
05:28PM 42.3240 -97.1650 81° East 528 608 35,000  Level FlightAware
05:29PM 42.3400 -97.0260 81° East 527 606 35,000  Level FlightAware
05:30PM 42.3620 -96.8270 81° East 524 603 35,000  Level FlightAware
05:30PM 42.3710 -96.7370 82° East 522 601 35,000  Level FlightAware
05:31PM 42.3910 -96.5570 81° East 519 597 35,000  Level FlightAware
05:31PM 42.3990 -96.4820 82° East 518 596 35,000  Level FlightAware
05:32PM 42.4120 -96.3560 82° East 516 594 35,000  Level FlightAware
05:33PM 42.4280 -96.2090 82° East 516 594 35,000  Level FlightAware
05:34PM 42.4490 -96.0050 82° East 516 594 35,000  Level FlightAware ADS-B
05:35PM 42.4680 -95.8150 82° East 515 593 35,000  Level FlightAware
05:36PM 42.4800 -95.6990 82° East 515 593 35,000  Level FlightAware
05:36PM 42.4900 -95.5970 82° East 516 594 35,000  Level FlightAware
05:37PM 42.5000 -95.4910 83° East 518 596 35,000  Level FlightAware
05:37PM 42.5110 -95.3840 82° East 519 597 35,000  Level FlightAware
05:38PM 42.5219 -95.2674 83° East 520 598 35,000  Level FlightAware ADS-B
05:38PM 42.5313 -95.1256 85° East 528 608 35,000  Level FlightAware ADS-B
05:39PM 42.5328 -95.0939 86° East 529 609 35,000  Level FlightAware ADS-B
05:39PM 42.5377 -94.9547 87° East 532 612 35,000  Level FlightAware ADS-B
05:40PM 42.5401 -94.8662 88° East 533 613 35,000  Level FlightAware ADS-B
05:40PM 42.5397 -94.8825 268° West 534 615 35,000  Level FlightAware ADS-B
05:41PM 42.5450 -94.6510 88° East 536 617 35,000  Level FlightAware
05:42PM 42.5481 -94.4749 89° East 537 618 35,000  Level FlightAware ADS-B
05:42PM 42.5503 -94.3576 89° East 538 619 35,000  Level FlightAware ADS-B
05:43PM 42.5520 -94.2400 89° East 539 620 35,000  Level FlightAware
05:44PM 42.5548 -94.1016 88° East 541 623 35,000  Level FlightAware ADS-B
05:44PM 42.5501 -94.3670 269° West 540 621 35,000  Level FlightAware ADS-B
05:45PM 42.5590 -93.8250 89° East 540 621 35,000  Level FlightAware
05:46PM 42.5620 -93.6490 89° East 538 619 35,000  Level FlightAware
05:47PM 42.5640 -93.4730 89° East 538 619 35,000  Level FlightAware
05:47PM 42.5650 -93.3930 89° East 539 620 35,000  Level FlightAware
05:48PM 42.5670 -93.2260 89° East 540 621 35,000  Level FlightAware
05:48PM 42.5680 -93.1440 89° East 540 621 35,000  Level FlightAware
05:49PM 42.5700 -92.9320 89° East 541 623 35,000  Level FlightAware
05:50PM 42.5710 -92.7570 89° East 541 623 35,000  Level FlightAware
05:51PM 42.5716 -92.6024 90° East 542 624 35,000  Level FlightAware ADS-B
05:52PM 42.5721 -92.4811 90° East 542 624 35,000  Level FlightAware ADS-B
05:52PM 42.5725 -92.3271 90° East 541 623 35,000  Level FlightAware ADS-B
05:53PM 42.5727 -92.1882 90° East 540 621 35,000  Level FlightAware ADS-B
05:54PM 42.5728 -92.0815 90° East 539 620 35,000  Level FlightAware ADS-B
05:54PM 42.5727 -91.9167 90° East 538 619 35,000  Level FlightAware ADS-B
05:55PM 42.5725 -91.7949 90° East 537 618 35,000  Level FlightAware ADS-B
05:56PM 42.5722 -91.6811 90° East 537 618 35,000  Level FlightAware ADS-B
05:56PM 42.5715 -91.5313 90° East 537 618 35,000  Level FlightAware ADS-B
05:57PM 42.5703 -91.3246 90° East 539 620 35,000  Level FlightAware ADS-B
05:58PM 42.5693 -91.1933 91° East 540 621 35,000  Level FlightAware ADS-B
05:59PM 42.5681 -91.0442 91° East 541 623 35,000  Level FlightAware ADS-B
05:59PM 42.5668 -90.9053 91° East 542 624 35,000  Level FlightAware ADS-B
06:00PM 42.5660 -90.7960 91° East 542 624 35,000  Level FlightAware
06:00PM 42.5649 -90.7395 91° East 542 624 35,000  Level FlightAware ADS-B
06:01PM 42.5632 -90.5984 91° East 542 624 35,000  Level FlightAware ADS-B
06:02PM 42.5600 -90.3620 91° East 541 623 35,000  Level FlightAware
06:03PM 42.5570 -90.1860 91° East 540 621 35,000  Level FlightAware
06:04PM 42.5540 -90.0050 91° East 539 620 35,000  Level FlightAware
06:05PM 42.5510 -89.8520 91° East 538 619 35,000  Level FlightAware
06:05PM 42.5490 -89.7450 91° East 536 617 35,000  Level FlightAware
06:06PM 42.5450 -89.5540 92° East 536 617 35,000  Level FlightAware
06:07PM 42.5420 -89.4380 92° East 536 617 35,000  Level FlightAware
06:07PM 42.5380 -89.2790 92° East 535 616 35,000  Level FlightAware
06:08PM 42.5330 -89.0760 92° East 534 615 35,000  Level FlightAware
06:09PM 42.5310 -88.9800 92° East 534 615 35,000  Level FlightAware
06:09PM 42.5280 -88.8720 92° East 535 616 35,000  Level FlightAware
06:10PM 42.5230 -88.6990 92° East 536 617 35,000  Level FlightAware
06:11PM 42.5180 -88.5380 92° East 537 618 35,000  Level FlightAware
06:12PM 42.5120 -88.3660 93° East 538 619 35,000  Level FlightAware
06:12PM 42.5090 -88.2680 92° East 538 619 35,000  Level FlightAware
06:13PM 42.5020 -88.0640 93° East 537 618 35,000  Level FlightAware
06:14PM 42.4890 -88.0510 144° Southeast 537 618 35,000  Level FlightAware
06:15PM 42.4990 -87.8150 87° East 535 616 35,000  Level FlightAware
06:15PM 42.4990 -87.7470 90° East 534 615 35,000  Level FlightAware
06:16PM 42.5000 -87.6180 89° East 533 613 35,000  Level FlightAware
06:17PM 42.5000 -87.4540 90° East 532 612 35,000  Level FlightAware
06:17PM 42.4980 -87.2840 91° East 532 612 35,000  Level FlightAware
06:18PM 42.4970 -87.1600 91° East 532 612 35,000  Level FlightAware
06:19PM 42.4960 -86.9540 90° East 533 613 35,000  Level FlightAware
06:20PM 42.4940 -86.7580 91° East 533 613 35,000  Level FlightAware
06:21PM 42.4920 -86.5930 91° East 534 615 35,000  Level FlightAware
06:22PM 42.4890 -86.4140 91° East 534 615 35,000  Level FlightAware
06:23PM 42.4870 -86.2530 91° East 534 615 35,000  Level FlightAware
06:23PM 42.4850 -86.0840 91° East 535 616 35,000  Level FlightAware
06:24PM 42.4820 -85.9400 92° East 535 616 35,000  Level FlightAware
06:25PM 42.4800 -85.8510 92° East 535 616 35,000  Level FlightAware
06:25PM 42.4770 -85.6720 91° East 535 616 35,000  Level FlightAware
06:26PM 42.4730 -85.4880 92° East 534 615 35,000  Level FlightAware
06:27PM 42.4700 -85.3400 92° East 533 613 35,000  Level FlightAware
06:28PM 42.4660 -85.1660 92° East 533 613 35,000  Level FlightAware
06:29PM 42.4610 -84.9900 92° East 533 613 35,000  Level FlightAware
06:30PM 42.4570 -84.8340 92° East 532 612 35,000  Level FlightAware
06:30PM 42.4540 -84.7270 92° East 532 612 35,000  Level FlightAware
06:31PM 42.4480 -84.5280 92° East 533 613 35,000  Level FlightAware
06:32PM 42.4440 -84.3950 92° East 533 613 35,000  Level FlightAware
06:33PM 42.4380 -84.2030 92° East 536 617 35,000  Level FlightAware
06:34PM 42.4320 -84.0120 92° East 538 619 35,000  Level FlightAware
06:34PM 42.4270 -83.8690 93° East 539 620 35,000  Level FlightAware
06:35PM 42.4210 -83.7110 93° East 539 620 35,000  Level FlightAware
06:36PM 42.4140 -83.5310 93° East 539 620 35,000  Level FlightAware
06:37PM 42.4070 -83.3480 93° East 538 619 35,000  Level FlightAware
06:37PM 42.4010 -83.2640 95° East 538 619 35,000  Level FlightAware
06:38PM 42.3850 -83.0680 96° East 537 618 35,000  Level FlightAware
06:39PM 42.3740 -82.9340 96° East 537 618 35,000  Level FlightAware
06:40PM 42.3620 -82.7780 96° East 537 618 35,000  Level FlightAware
06:41PM 42.3490 -82.6170 96° East 539 620 35,000  Level FlightAware
06:41PM 42.3450 -82.5670 96° East 540 621 35,000  Level FlightAware
06:42PM 42.3290 -82.3670 96° East 538 619 35,000  Level FlightAware
06:42PM 42.3210 -82.2690 96° East 539 620 35,000  Level FlightAware
06:43PM 42.3150 -82.1920 96° East 539 620 35,000  Level FlightAware
06:44PM 42.2960 -81.9710 97° East 538 619 35,000  Level FlightAware
06:45PM 42.2820 -81.8100 97° East 538 619 35,000  Level FlightAware
06:45PM 42.2750 -81.7300 97° East 539 620 35,000  Level FlightAware
06:46PM 42.2640 -81.6120 97° East 539 620 35,000  Level FlightAware
06:46PM 42.2550 -81.5120 97° East 541 623 35,000  Level FlightAware
06:47PM 42.2370 -81.3090 97° East 543 625 35,000  Level FlightAware
06:48PM 42.2280 -81.2140 97° East 545 627 35,000  Level FlightAware
06:49PM 42.2100 -81.0180 97° East 545 627 35,000  Level FlightAware
06:49PM 42.2030 -80.9500 98° East 545 627 35,000  Level FlightAware
06:50PM 42.1850 -80.7560 97° East 543 625 35,000  Level FlightAware
06:51PM 42.1690 -80.5950 98° East 541 623 35,000  Level FlightAware
06:51PM 42.1560 -80.4630 98° East 540 621 35,000  Level FlightAware
06:53PM 42.1320 -80.2280 98° East 538 619 35,000  Level FlightAware
06:53PM 42.1210 -80.1170 98° East 539 620 35,000  Level FlightAware
06:54PM 42.1120 -80.0310 98° East 539 620 35,000  Level FlightAware
06:55PM 42.0920 -79.8360 98° East 538 619 35,000  Level FlightAware
06:55PM 42.0730 -79.6600 98° East 537 618 35,000  Level FlightAware
06:56PM 42.0520 -79.4630 98° East 535 616 35,000  Level FlightAware
06:57PM 42.0360 -79.3160 98° East 535 616 35,000  Level FlightAware
06:58PM 42.0140 -79.1190 98° East 537 618 35,000  Level FlightAware
06:59PM 42.0040 -79.0270 98° East 538 619 35,000  Level FlightAware
07:00PM 41.9810 -78.8290 99° East 541 623 35,000  Level FlightAware
07:00PM 41.9730 -78.7600 99° East 541 623 35,000  Level FlightAware
07:01PM 41.9610 -78.6540 99° East 541 623 35,000  Level FlightAware
07:01PM 41.9380 -78.4610 99° East 541 623 35,000  Level FlightAware
07:02PM 41.9240 -78.3360 99° East 540 621 35,000  Level FlightAware
07:03PM 41.8990 -78.1340 99° East 541 623 35,000  Level FlightAware
07:04PM 41.8840 -78.0050 99° East 542 624 35,000  Level FlightAware
07:05PM 41.8570 -77.8290 102° East 538 619 35,000  Level FlightAware
07:05PM 41.8200 -77.6800 108° East 536 617 35,000  Level FlightAware
07:06PM 41.7970 -77.5920 109° East 536 617 35,000  Level FlightAware
07:06PM 41.7750 -77.5100 110° East 537 618 35,000  Level FlightAware
07:07PM 41.7290 -77.3400 110° East 537 618 35,000  Level FlightAware
07:08PM 41.6870 -77.1840 110° East 536 617 35,000  Level FlightAware
07:09PM 41.6390 -77.0060 110° East 536 617 35,000  Level FlightAware
07:10PM 41.6020 -76.8690 110° East 536 617 35,000  Level FlightAware
07:11PM 41.5530 -76.6900 110° East 535 616 35,000  Level FlightAware
07:12PM 41.5100 -76.5340 110° East 534 615 35,000  Level FlightAware
07:13PM 41.4640 -76.3660 110° East 534 615 35,000  Level FlightAware
07:13PM 41.4290 -76.2430 111° Southeast 536 617 35,000 -540 Level FlightAware
07:14PM 41.3710 -76.0360 110° East 544 626 34,100 -1,140 Descending FlightAware
07:15PM 41.3340 -75.9030 110° East 540 621 33,000 -2,580 Descending FlightAware
07:16PM 41.2900 -75.7490 111° Southeast 541 623 30,200 -3,600 Descending FlightAware
07:17PM 41.2470 -75.6110 112° Southeast 532 612 27,500 -3,120 Descending FlightAware
07:17PM 41.1970 -75.4620 114° Southeast 505 581 25,200 -2,760 Descending FlightAware
07:18PM 41.1740 -75.3940 114° Southeast 493 567 24,100 -2,220 Descending FlightAware
07:18PM 41.1450 -75.3050 113° Southeast 486 559 23,100 -1,140 Descending FlightAware
07:19PM 41.1180 -75.2280 115° Southeast 482 555 23,000 -120 Descending FlightAware
07:20PM 41.0670 -75.0760 114° Southeast 428 493 23,000  Level FlightAware
07:21PM 41.0270 -74.9600 115° Southeast 379 436 23,000 -240 Level FlightAware
07:22PM 40.9960 -74.8590 112° Southeast 384 442 22,600 -960 Descending FlightAware
07:22PM 40.9810 -74.7370 99° East 375 432 21,500 -1,380 Descending FlightAware
07:23PM 40.9690 -74.6200 98° East 364 419 20,200 -1,500 Descending FlightAware
07:24PM 40.9580 -74.5190 98° East 357 411 19,000 -780 Descending FlightAware
07:25PM 40.9470 -74.4190 98° East 353 406 19,000  Level FlightAware
07:26PM 40.9319 -74.2855 98° East 355 409 19,000 -180 Level FlightAware ADS-B
07:27PM 40.8943 -74.1404 109° East 338 389 18,700 -960 Descending FlightAware ADS-B
07:28PM 40.8698 -74.0868 121° Southeast 328 377 17,400 -2,400 Descending FlightAware ADS-B
07:28PM 40.8442 -74.0315 121° Southeast 324 373 16,200 -2,220 Descending FlightAware ADS-B
07:28PM 40.8493 -74.0425 301° West 324 373 16,200 -2,760 Level FlightAware ADS-B (KSNC)
07:29PM 40.8207 -73.9800 121° Southeast 319 367 14,800 -4,260 Descending FlightAware ADS-B
07:29PM 40.8119 -73.9607 121° Southeast 318 366 13,300 -1,440 Descending FlightAware ADS-B (KSNC)
07:30PM 40.7684 -73.8688 122° Southeast 317 365 13,200 -120 Descending FlightAware ADS-B
07:30PM 40.7516 -73.8332 122° Southeast 318 366 13,200  Level FlightAware ADS-B (KSNC)
07:31PM 40.7272 -73.7809 122° Southeast 300 345 13,200 -360 Level FlightAware ADS-B (KSNC)
07:31PM 40.6930 -73.7331 133° Southeast 292 336 12,800 -1,980 Descending FlightAware ADS-B (KSNC)
07:32PM 40.6280 -73.7040 161° South 288 331 10,500 -2,580 Descending FlightAware
07:33PM 40.5930 -73.6890 162° South 293 337 9,400 -2,280 Descending FlightAware
07:33PM 40.5630 -73.6760 162° South 290 334 8,600 -2,160 Descending FlightAware
07:33PM 40.5300 -73.6640 165° South 285 328 7,600 -2,220 Descending FlightAware
07:34PM 40.4870 -73.6480 164° South 273 314 6,400 -2,220 Descending FlightAware
07:35PM 40.4480 -73.6540 187° South 264 304 5,200 -2,220 Descending FlightAware
07:35PM 40.4200 -73.6640 195° South 264 304 4,400 -1,080 Descending FlightAware
07:35PM 40.3830 -73.6770 195° South 244 281 4,200 -540 Descending FlightAware
07:36PM 40.3580 -73.6930 206° Southwest 227 261 3,900 -660 Descending FlightAware
07:36PM 40.3400 -73.7240 233° Southwest 213 245 3,600 -780 Descending FlightAware
07:37PM 40.3390 -73.7540 268° West 206 237 3,200 -960 Descending FlightAware
07:37PM 40.3410 -73.7790 276° West 202 232 2,900 -780 Descending FlightAware
07:37PM 40.3440 -73.8010 280° West 198 228 2,700 -540 Descending FlightAware
07:38PM 40.3560 -73.8240 304° West 186 214 2,500 -420 Descending FlightAware
07:38PM 40.3680 -73.8440 308° West 172 198 2,400 -360 Descending FlightAware
07:39PM 40.3830 -73.8690 308° West 171 197 2,200 -240 Descending FlightAware
07:39PM 40.4030 -73.8780 341° North 174 200 2,200  Level FlightAware
07:40PM 40.4240 -73.8770 North 173 199 2,200  Level FlightAware
07:40PM 40.4470 -73.8760 North 174 200 2,200  Level FlightAware
07:41PM 40.4670 -73.8750 North 176 203 2,200  Level FlightAware
07:41PM 40.5070 -73.8620 14° North 184 212 2,200  Level FlightAware ADS-B
07:42PM 40.5350 -73.8410 30° Northeast 181 208 2,200 -300 Level FlightAware
07:43PM 40.5560 -73.8240 32° Northeast 177 204 1,900 -780 Descending FlightAware
07:43PM 40.5740 -73.8100 31° Northeast 155 178 1,500 -840 Descending FlightAware
07:43PM 40.5880 -73.7990 31° Northeast 145 167 1,200 -780 Descending FlightAware
07:44PM 40.6060 -73.7860 29° Northeast 137 158 800 -780 Descending FlightAware
07:44PM 40.6140 -73.7790 34° Northeast 141 162 600 -780 Descending FlightAware
07:45PM 40.6330 -73.7640 31° Northeast 110 127 -1,020 Descending FlightAware
07:55PM 40.6390 -73.7760 270° West  Level FlightAware